sensor_id;sensor_type;location;lat;lon;timestamp;pressure;altitude;pressure_sealevel;temperature;humidity
40612;BME280;26317;44.894;20.286;2023-05-23T00:00:18;100460.97;;;19.61;68.54
40612;BME280;26317;44.894;20.286;2023-05-23T00:02:56;100458.94;;;19.58;69.02
40612;BME280;26317;44.894;20.286;2023-05-23T00:05:36;100456.97;;;19.58;69.14
40612;BME280;26317;44.894;20.286;2023-05-23T00:08:14;100455.91;;;19.51;69.04
40612;BME280;26317;44.894;20.286;2023-05-23T00:10:56;100468.09;;;19.53;69.05
40612;BME280;26317;44.894;20.286;2023-05-23T00:13:38;100468.41;;;19.52;69.84
40612;BME280;26317;44.894;20.286;2023-05-23T00:16:12;100463.81;;;19.44;71.14
40612;BME280;26317;44.894;20.286;2023-05-23T00:18:52;100468.50;;;19.35;71.78
40612;BME280;26317;44.894;20.286;2023-05-23T00:21:36;100465.31;;;19.33;71.88
40612;BME280;26317;44.894;20.286;2023-05-23T00:24:20;100462.91;;;19.31;71.33
40612;BME280;26317;44.894;20.286;2023-05-23T00:27:17;100459.88;;;19.33;70.74
40612;BME280;26317;44.894;20.286;2023-05-23T00:29:53;100458.72;;;19.34;71.98
40612;BME280;26317;44.894;20.286;2023-05-23T00:32:25;100460.34;;;19.35;72.56
40612;BME280;26317;44.894;20.286;2023-05-23T00:35:11;100464.38;;;19.28;71.98
40612;BME280;26317;44.894;20.286;2023-05-23T00:37:48;100463.44;;;19.24;71.48
40612;BME280;26317;44.894;20.286;2023-05-23T00:40:23;100468.41;;;19.22;70.74
40612;BME280;26317;44.894;20.286;2023-05-23T00:43:07;100471.13;;;19.22;71.77
40612;BME280;26317;44.894;20.286;2023-05-23T00:45:56;100469.44;;;19.09;72.06
40612;BME280;26317;44.894;20.286;2023-05-23T00:48:35;100469.19;;;19.02;72.26
40612;BME280;26317;44.894;20.286;2023-05-23T00:51:26;100474.78;;;18.97;72.62
40612;BME280;26317;44.894;20.286;2023-05-23T00:54:08;100479.34;;;18.84;73.92
40612;BME280;26317;44.894;20.286;2023-05-23T00:56:43;100482.47;;;18.66;74.71
40612;BME280;26317;44.894;20.286;2023-05-23T00:59:33;100479.13;;;18.52;76.05
40612;BME280;26317;44.894;20.286;2023-05-23T01:02:17;100473.41;;;18.45;76.57
40612;BME280;26317;44.894;20.286;2023-05-23T01:04:54;100463.03;;;18.38;76.92
40612;BME280;26317;44.894;20.286;2023-05-23T01:07:26;100465.28;;;18.36;76.61
40612;BME280;26317;44.894;20.286;2023-05-23T01:10:11;100472.91;;;18.43;76.68
40612;BME280;26317;44.894;20.286;2023-05-23T01:13:12;100462.06;;;18.43;77.18
40612;BME280;26317;44.894;20.286;2023-05-23T01:16:01;100469.53;;;18.46;76.41
40612;BME280;26317;44.894;20.286;2023-05-23T01:18:59;100474.97;;;18.46;76.24
40612;BME280;26317;44.894;20.286;2023-05-23T01:21:42;100486.47;;;18.51;76.49
40612;BME280;26317;44.894;20.286;2023-05-23T01:24:35;100482.94;;;18.51;76.20
40612;BME280;26317;44.894;20.286;2023-05-23T01:30:26;100480.75;;;18.53;75.09
40612;BME280;26317;44.894;20.286;2023-05-23T01:33:09;100476.91;;;18.54;74.81
40612;BME280;26317;44.894;20.286;2023-05-23T01:35:45;100461.41;;;18.46;74.85
40612;BME280;26317;44.894;20.286;2023-05-23T01:38:40;100474.81;;;18.59;74.32
40612;BME280;26317;44.894;20.286;2023-05-23T01:41:21;100483.94;;;18.55;74.18
40612;BME280;26317;44.894;20.286;2023-05-23T01:44:04;100480.91;;;18.56;74.09
40612;BME280;26317;44.894;20.286;2023-05-23T01:46:51;100493.19;;;18.54;74.21
40612;BME280;26317;44.894;20.286;2023-05-23T01:49:28;100467.19;;;18.35;73.96
40612;BME280;26317;44.894;20.286;2023-05-23T01:52:30;100492.22;;;18.50;73.45
40612;BME280;26317;44.894;20.286;2023-05-23T01:55:23;100487.59;;;18.50;73.93
40612;BME280;26317;44.894;20.286;2023-05-23T01:58:09;100483.78;;;18.43;73.51
40612;BME280;26317;44.894;20.286;2023-05-23T02:00:50;100484.28;;;18.45;73.16
40612;BME280;26317;44.894;20.286;2023-05-23T02:03:36;100468.81;;;18.28;73.13
40612;BME280;26317;44.894;20.286;2023-05-23T02:06:17;100489.38;;;18.37;73.34
40612;BME280;26317;44.894;20.286;2023-05-23T02:08:48;100493.69;;;18.38;73.82
40612;BME280;26317;44.894;20.286;2023-05-23T02:11:43;100481.09;;;18.25;74.16
40612;BME280;26317;44.894;20.286;2023-05-23T02:14:22;100489.75;;;18.27;73.75
40612;BME280;26317;44.894;20.286;2023-05-23T02:17:03;100492.31;;;18.24;74.01
40612;BME280;26317;44.894;20.286;2023-05-23T02:19:50;100488.78;;;18.23;74.09
40612;BME280;26317;44.894;20.286;2023-05-23T02:22:25;100485.28;;;18.23;74.74
40612;BME280;26317;44.894;20.286;2023-05-23T02:24:59;100484.31;;;18.19;74.76
40612;BME280;26317;44.894;20.286;2023-05-23T02:27:44;100484.63;;;18.17;74.75
40612;BME280;26317;44.894;20.286;2023-05-23T02:30:19;100492.78;;;18.17;74.80
40612;BME280;26317;44.894;20.286;2023-05-23T02:32:56;100486.91;;;18.15;73.89
40612;BME280;26317;44.894;20.286;2023-05-23T02:35:44;100476.50;;;18.09;73.03
40612;BME280;26317;44.894;20.286;2023-05-23T02:38:23;100468.38;;;18.00;72.88
40612;BME280;26317;44.894;20.286;2023-05-23T02:40:59;100477.66;;;17.90;72.53
40612;BME280;26317;44.894;20.286;2023-05-23T02:43:43;100478.78;;;17.81;73.21
40612;BME280;26317;44.894;20.286;2023-05-23T02:46:21;100488.84;;;17.72;73.17
40612;BME280;26317;44.894;20.286;2023-05-23T02:48:59;100484.06;;;17.69;73.46
40612;BME280;26317;44.894;20.286;2023-05-23T02:51:34;100474.00;;;17.61;73.88
40612;BME280;26317;44.894;20.286;2023-05-23T02:54:10;100471.09;;;17.57;74.57
40612;BME280;26317;44.894;20.286;2023-05-23T02:56:51;100475.56;;;17.53;73.85
40612;BME280;26317;44.894;20.286;2023-05-23T02:59:39;100470.59;;;17.46;73.88
40612;BME280;26317;44.894;20.286;2023-05-23T03:02:16;100453.34;;;17.34;73.95
40612;BME280;26317;44.894;20.286;2023-05-23T03:04:59;100461.81;;;17.32;74.59
40612;BME280;26317;44.894;20.286;2023-05-23T03:07:40;100465.94;;;17.30;74.56
40612;BME280;26317;44.894;20.286;2023-05-23T03:10:17;100468.19;;;17.28;74.64
40612;BME280;26317;44.894;20.286;2023-05-23T03:12:51;100470.09;;;17.27;75.12
40612;BME280;26317;44.894;20.286;2023-05-23T03:15:39;100476.63;;;17.26;74.80
40612;BME280;26317;44.894;20.286;2023-05-23T03:18:13;100466.75;;;17.22;75.07
40612;BME280;26317;44.894;20.286;2023-05-23T03:20:51;100467.41;;;17.27;75.28
40612;BME280;26317;44.894;20.286;2023-05-23T03:23:48;100472.31;;;17.25;75.94
40612;BME280;26317;44.894;20.286;2023-05-23T03:26:27;100476.63;;;17.26;75.39
40612;BME280;26317;44.894;20.286;2023-05-23T03:29:12;100481.25;;;17.26;75.75
40612;BME280;26317;44.894;20.286;2023-05-23T03:31:52;100479.50;;;17.21;76.94
40612;BME280;26317;44.894;20.286;2023-05-23T03:34:31;100482.84;;;17.18;77.16
40612;BME280;26317;44.894;20.286;2023-05-23T03:37:09;100477.13;;;17.20;77.84
40612;BME280;26317;44.894;20.286;2023-05-23T03:39:52;100482.84;;;17.18;77.98
40612;BME280;26317;44.894;20.286;2023-05-23T03:42:29;100487.16;;;17.19;77.84
40612;BME280;26317;44.894;20.286;2023-05-23T03:44:59;100477.28;;;17.23;78.06
40612;BME280;26317;44.894;20.286;2023-05-23T03:47:45;100481.25;;;17.26;78.65
40612;BME280;26317;44.894;20.286;2023-05-23T03:50:22;100472.00;;;17.18;80.02
40612;BME280;26317;44.894;20.286;2023-05-23T03:53:14;100478.22;;;17.19;80.38
40612;BME280;26317;44.894;20.286;2023-05-23T03:56:01;100478.22;;;17.19;80.92
40612;BME280;26317;44.894;20.286;2023-05-23T03:58:43;100476.31;;;17.19;81.72
40612;BME280;26317;44.894;20.286;2023-05-23T04:01:23;100478.09;;;17.24;82.71
40612;BME280;26317;44.894;20.286;2023-05-23T04:03:58;100480.28;;;17.22;83.00
40612;BME280;26317;44.894;20.286;2023-05-23T04:06:38;100482.53;;;17.20;83.63
40612;BME280;26317;44.894;20.286;2023-05-23T04:09:15;100484.44;;;17.19;83.91
40612;BME280;26317;44.894;20.286;2023-05-23T04:12:10;100488.25;;;17.18;84.33
40612;BME280;26317;44.894;20.286;2023-05-23T04:14:47;100491.13;;;17.22;84.21
40612;BME280;26317;44.894;20.286;2023-05-23T04:17:42;100491.94;;;17.22;84.52
40612;BME280;26317;44.894;20.286;2023-05-23T04:20:19;100481.75;;;17.19;84.40
40612;BME280;26317;44.894;20.286;2023-05-23T04:23:02;100491.16;;;17.30;84.36
40612;BME280;26317;44.894;20.286;2023-05-23T04:25:46;100488.44;;;17.30;84.83
40612;BME280;26317;44.894;20.286;2023-05-23T04:28:56;100505.53;;;17.39;85.29
40612;BME280;26317;44.894;20.286;2023-05-23T04:31:42;100505.84;;;17.46;85.67
40612;BME280;26317;44.894;20.286;2023-05-23T04:34:25;100515.28;;;17.49;85.21
40612;BME280;26317;44.894;20.286;2023-05-23T04:37:16;100513.84;;;17.52;85.22
40612;BME280;26317;44.894;20.286;2023-05-23T04:40:10;100505.88;;;17.55;84.66
40612;BME280;26317;44.894;20.286;2023-05-23T04:43:04;100507.00;;;17.63;84.91
40612;BME280;26317;44.894;20.286;2023-05-23T04:45:57;100508.63;;;17.64;84.53
40612;BME280;26317;44.894;20.286;2023-05-23T04:48:41;100507.81;;;17.63;83.85
40612;BME280;26317;44.894;20.286;2023-05-23T04:51:19;100486.72;;;17.52;83.65
40612;BME280;26317;44.894;20.286;2023-05-23T04:54:11;100517.22;;;17.74;83.46
40612;BME280;26317;44.894;20.286;2023-05-23T04:56:51;100520.75;;;17.75;83.02
40612;BME280;26317;44.894;20.286;2023-05-23T04:59:25;100515.00;;;17.76;82.22
40612;BME280;26317;44.894;20.286;2023-05-23T05:02:10;100509.28;;;17.78;82.81
40612;BME280;26317;44.894;20.286;2023-05-23T05:04:50;100505.91;;;17.81;83.32
40612;BME280;26317;44.894;20.286;2023-05-23T05:07:41;100507.03;;;17.88;83.03
40612;BME280;26317;44.894;20.286;2023-05-23T05:10:19;100517.56;;;17.90;83.28
40612;BME280;26317;44.894;20.286;2023-05-23T05:12:58;100512.44;;;17.97;83.93
40612;BME280;26317;44.894;20.286;2023-05-23T05:15:51;100512.75;;;18.04;84.09
40612;BME280;26317;44.894;20.286;2023-05-23T05:18:48;100521.03;;;18.16;83.19
40612;BME280;26317;44.894;20.286;2023-05-23T05:21:35;100510.53;;;18.15;80.97
40612;BME280;26317;44.894;20.286;2023-05-23T05:24:12;100503.00;;;18.20;82.32
40612;BME280;26317;44.894;20.286;2023-05-23T05:27:07;100498.03;;;18.22;81.99
40612;BME280;26317;44.894;20.286;2023-05-23T05:29:49;100507.63;;;18.28;82.46
40612;BME280;26317;44.894;20.286;2023-05-23T05:32:46;100499.16;;;18.30;82.53
40612;BME280;26317;44.894;20.286;2023-05-23T05:35:24;100506.63;;;18.42;83.62
40612;BME280;26317;44.894;20.286;2023-05-23T05:37:57;100505.50;;;18.51;84.18
40612;BME280;26317;44.894;20.286;2023-05-23T05:40:35;100511.56;;;18.65;83.89
40612;BME280;26317;44.894;20.286;2023-05-23T05:43:11;100504.00;;;18.71;84.20
40612;BME280;26317;44.894;20.286;2023-05-23T05:45:47;100509.56;;;18.83;83.46
40612;BME280;26317;44.894;20.286;2023-05-23T05:48:20;100516.88;;;18.91;82.96
40612;BME280;26317;44.894;20.286;2023-05-23T05:51:12;100515.06;;;19.04;81.75
40612;BME280;26317;44.894;20.286;2023-05-23T05:53:49;100517.28;;;19.10;82.41
40612;BME280;26317;44.894;20.286;2023-05-23T05:56:35;100511.44;;;19.20;81.67
40612;BME280;26317;44.894;20.286;2023-05-23T05:59:09;100514.78;;;19.26;80.62
40612;BME280;26317;44.894;20.286;2023-05-23T06:01:45;100513.78;;;19.30;80.75
40612;BME280;26317;44.894;20.286;2023-05-23T06:04:21;100519.50;;;19.38;80.24
40612;BME280;26317;44.894;20.286;2023-05-23T06:07:09;100514.84;;;19.47;81.54
40612;BME280;26317;44.894;20.286;2023-05-23T06:09:46;100502.66;;;19.73;87.50
40612;BME280;26317;44.894;20.286;2023-05-23T06:12:25;100517.47;;;20.17;82.85
40612;BME280;26317;44.894;20.286;2023-05-23T06:15:18;100514.50;;;20.43;78.50
40612;BME280;26317;44.894;20.286;2023-05-23T06:17:56;100511.50;;;20.69;77.26
40612;BME280;26317;44.894;20.286;2023-05-23T06:20:33;100515.38;;;20.92;75.47
40612;BME280;26317;44.894;20.286;2023-05-23T06:23:41;100515.28;;;21.01;74.17
40612;BME280;26317;44.894;20.286;2023-05-23T06:26:18;100514.47;;;21.00;74.16
40612;BME280;26317;44.894;20.286;2023-05-23T06:28:56;100521.09;;;20.99;73.08
40612;BME280;26317;44.894;20.286;2023-05-23T06:32:01;100522.78;;;21.04;74.95
40612;BME280;26317;44.894;20.286;2023-05-23T06:34:42;100524.63;;;21.12;73.92
40612;BME280;26317;44.894;20.286;2023-05-23T06:37:17;100521.22;;;21.15;73.14
40612;BME280;26317;44.894;20.286;2023-05-23T06:40:09;100525.41;;;21.13;72.10
40612;BME280;26317;44.894;20.286;2023-05-23T06:42:53;100527.38;;;21.12;71.76
40612;BME280;26317;44.894;20.286;2023-05-23T06:45:50;100530.19;;;21.16;72.38
40612;BME280;26317;44.894;20.286;2023-05-23T06:48:27;100529.03;;;21.17;71.39
40612;BME280;26317;44.894;20.286;2023-05-23T06:51:08;100524.06;;;21.19;71.02
40612;BME280;26317;44.894;20.286;2023-05-23T06:53:51;100522.47;;;21.18;70.73
40612;BME280;26317;44.894;20.286;2023-05-23T06:56:33;100524.16;;;21.22;72.54
40612;BME280;26317;44.894;20.286;2023-05-23T06:59:11;100516.66;;;21.31;73.38
40612;BME280;26317;44.894;20.286;2023-05-23T07:01:52;100525.41;;;21.37;70.92
40612;BME280;26317;44.894;20.286;2023-05-23T07:04:31;100513.91;;;21.43;71.50
40612;BME280;26317;44.894;20.286;2023-05-23T07:07:09;100508.13;;;21.45;71.56
40612;BME280;26317;44.894;20.286;2023-05-23T07:09:46;100518.22;;;21.56;69.30
40612;BME280;26317;44.894;20.286;2023-05-23T07:12:39;100502.63;;;21.57;68.09
40612;BME280;26317;44.894;20.286;2023-05-23T07:15:32;100498.59;;;21.67;68.77
40612;BME280;26317;44.894;20.286;2023-05-23T07:18:14;100508.25;;;21.76;68.32
40612;BME280;26317;44.894;20.286;2023-05-23T07:20:53;100509.72;;;21.86;68.83
40612;BME280;26317;44.894;20.286;2023-05-23T07:23:42;100504.47;;;21.93;69.11
40612;BME280;26317;44.894;20.286;2023-05-23T07:26:18;100516.28;;;21.97;68.32
40612;BME280;26317;44.894;20.286;2023-05-23T07:28:57;100509.59;;;21.94;68.15
40612;BME280;26317;44.894;20.286;2023-05-23T07:31:29;100506.50;;;21.96;68.44
40612;BME280;26317;44.894;20.286;2023-05-23T07:34:05;100498.38;;;22.12;67.74
40612;BME280;26317;44.894;20.286;2023-05-23T07:37:13;100490.53;;;22.26;68.28
40612;BME280;26317;44.894;20.286;2023-05-23T07:39:50;100494.97;;;22.30;66.73
40612;BME280;26317;44.894;20.286;2023-05-23T07:42:22;100502.66;;;22.40;66.17
40612;BME280;26317;44.894;20.286;2023-05-23T07:44:59;100500.91;;;22.48;64.47
40612;BME280;26317;44.894;20.286;2023-05-23T07:47:41;100499.41;;;22.51;64.12
40612;BME280;26317;44.894;20.286;2023-05-23T07:50:20;100476.22;;;22.44;63.79
40612;BME280;26317;44.894;20.286;2023-05-23T07:53:02;100498.81;;;22.73;63.55
40612;BME280;26317;44.894;20.286;2023-05-23T07:55:43;100497.59;;;22.70;62.65
40612;BME280;26317;44.894;20.286;2023-05-23T07:58:26;100494.25;;;22.77;62.09
40612;BME280;26317;44.894;20.286;2023-05-23T08:01:15;100494.31;;;22.80;62.36
40612;BME280;26317;44.894;20.286;2023-05-23T08:04:02;100495.19;;;22.84;61.43
40612;BME280;26317;44.894;20.286;2023-05-23T08:07:11;100489.03;;;22.87;58.91
40612;BME280;26317;44.894;20.286;2023-05-23T08:09:56;100479.06;;;22.79;60.16
40612;BME280;26317;44.894;20.286;2023-05-23T08:12:40;100489.38;;;23.02;62.64
40612;BME280;26317;44.894;20.286;2023-05-23T08:15:23;100487.25;;;23.11;59.02
40612;BME280;26317;44.894;20.286;2023-05-23T08:18:23;100487.47;;;23.21;59.08
40612;BME280;26317;44.894;20.286;2023-05-23T08:21:06;100489.31;;;23.33;59.24
40612;BME280;26317;44.894;20.286;2023-05-23T08:23:44;100486.66;;;23.36;60.39
40612;BME280;26317;44.894;20.286;2023-05-23T08:26:26;100492.84;;;23.49;57.41
40612;BME280;26317;44.894;20.286;2023-05-23T08:29:13;100500.03;;;23.57;56.67
40612;BME280;26317;44.894;20.286;2023-05-23T08:31:49;100501.44;;;23.67;54.75
40612;BME280;26317;44.894;20.286;2023-05-23T08:34:28;100495.09;;;23.82;54.41
40612;BME280;26317;44.894;20.286;2023-05-23T08:37:09;100487.50;;;23.95;53.56
40612;BME280;26317;44.894;20.286;2023-05-23T08:39:50;100483.81;;;24.06;52.84
40612;BME280;26317;44.894;20.286;2023-05-23T08:43:07;100493.06;;;24.17;54.32
40612;BME280;26317;44.894;20.286;2023-05-23T08:45:44;100492.53;;;24.31;52.12
40612;BME280;26317;44.894;20.286;2023-05-23T08:48:28;100479.38;;;24.40;53.95
40612;BME280;26317;44.894;20.286;2023-05-23T08:51:25;100476.06;;;24.50;52.15
40612;BME280;26317;44.894;20.286;2023-05-23T08:54:31;100473.59;;;24.45;52.71
40612;BME280;26317;44.894;20.286;2023-05-23T08:57:14;100468.69;;;24.54;51.23
40612;BME280;26317;44.894;20.286;2023-05-23T08:59:58;100473.22;;;24.69;52.53
40612;BME280;26317;44.894;20.286;2023-05-23T09:02:48;100471.88;;;24.83;52.20
40612;BME280;26317;44.894;20.286;2023-05-23T09:05:42;100469.31;;;24.93;52.67
40612;BME280;26317;44.894;20.286;2023-05-23T09:08:28;100477.03;;;25.10;52.47
40612;BME280;26317;44.894;20.286;2023-05-23T09:11:07;100466.09;;;25.14;47.99
40612;BME280;26317;44.894;20.286;2023-05-23T09:13:52;100472.63;;;25.32;49.09
40612;BME280;26317;44.894;20.286;2023-05-23T09:16:34;100451.44;;;25.29;50.58
40612;BME280;26317;44.894;20.286;2023-05-23T09:19:28;100478.13;;;25.58;48.00
40612;BME280;26317;44.894;20.286;2023-05-23T09:22:16;100456.00;;;25.51;51.20
40612;BME280;26317;44.894;20.286;2023-05-23T09:25:28;100463.69;;;25.65;47.18
40612;BME280;26317;44.894;20.286;2023-05-23T09:28:04;100470.44;;;25.71;49.25
40612;BME280;26317;44.894;20.286;2023-05-23T09:30:46;100474.81;;;25.76;45.67
40612;BME280;26317;44.894;20.286;2023-05-23T09:33:39;100468.84;;;25.70;46.31
40612;BME280;26317;44.894;20.286;2023-05-23T09:36:18;100466.06;;;25.67;46.01
40612;BME280;26317;44.894;20.286;2023-05-23T09:39:03;100461.84;;;25.76;44.67
40612;BME280;26317;44.894;20.286;2023-05-23T09:41:39;100453.66;;;25.80;44.22
40612;BME280;26317;44.894;20.286;2023-05-23T09:44:22;100458.00;;;25.84;44.09
40612;BME280;26317;44.894;20.286;2023-05-23T09:47:06;100452.66;;;25.95;44.19
40612;BME280;26317;44.894;20.286;2023-05-23T09:49:44;100451.22;;;26.08;44.50
40612;BME280;26317;44.894;20.286;2023-05-23T09:52:41;100455.97;;;26.11;44.36
40612;BME280;26317;44.894;20.286;2023-05-23T09:55:21;100446.53;;;26.08;42.46
40612;BME280;26317;44.894;20.286;2023-05-23T09:58:22;100451.00;;;26.24;44.69
40612;BME280;26317;44.894;20.286;2023-05-23T10:00:59;100436.19;;;26.35;41.97
40612;BME280;26317;44.894;20.286;2023-05-23T10:03:45;100448.50;;;26.48;41.61
40612;BME280;26317;44.894;20.286;2023-05-23T10:06:58;100437.97;;;26.58;41.48
40612;BME280;26317;44.894;20.286;2023-05-23T10:09:41;100442.81;;;26.75;40.65
40612;BME280;26317;44.894;20.286;2023-05-23T10:12:37;100439.81;;;26.94;37.79
40612;BME280;26317;44.894;20.286;2023-05-23T10:15:38;100440.63;;;26.98;37.63
40612;BME280;26317;44.894;20.286;2023-05-23T10:18:25;100439.03;;;26.97;37.74
40612;BME280;26317;44.894;20.286;2023-05-23T10:21:09;100440.25;;;26.96;37.59
40612;BME280;26317;44.894;20.286;2023-05-23T10:23:53;100433.91;;;26.92;40.18
40612;BME280;26317;44.894;20.286;2023-05-23T10:26:35;100429.69;;;27.05;41.33
40612;BME280;26317;44.894;20.286;2023-05-23T10:29:11;100428.16;;;27.18;40.63
40612;BME280;26317;44.894;20.286;2023-05-23T10:31:52;100429.03;;;27.29;40.36
40612;BME280;26317;44.894;20.286;2023-05-23T10:34:39;100427.47;;;27.35;37.78
40612;BME280;26317;44.894;20.286;2023-05-23T10:37:19;100415.75;;;27.49;37.57
40612;BME280;26317;44.894;20.286;2023-05-23T10:40:06;100418.47;;;27.45;38.92
40612;BME280;26317;44.894;20.286;2023-05-23T10:42:59;100427.44;;;27.28;38.17
40612;BME280;26317;44.894;20.286;2023-05-23T10:45:54;100423.06;;;27.17;38.27
40612;BME280;26317;44.894;20.286;2023-05-23T10:48:39;100403.00;;;27.20;39.55
40612;BME280;26317;44.894;20.286;2023-05-23T10:51:17;100415.69;;;27.38;36.80
40612;BME280;26317;44.894;20.286;2023-05-23T10:53:54;100410.94;;;27.35;37.99
40612;BME280;26317;44.894;20.286;2023-05-23T10:57:02;100409.75;;;27.36;38.21
40612;BME280;26317;44.894;20.286;2023-05-23T10:59:38;100400.72;;;27.39;37.97
40612;BME280;26317;44.894;20.286;2023-05-23T11:02:15;100395.97;;;27.33;39.76
40612;BME280;26317;44.894;20.286;2023-05-23T11:05:26;100398.44;;;27.49;40.78
40612;BME280;26317;44.894;20.286;2023-05-23T11:08:24;100394.94;;;27.69;39.87
40612;BME280;26317;44.894;20.286;2023-05-23T11:11:18;100386.31;;;27.78;39.30
40612;BME280;26317;44.894;20.286;2023-05-23T11:13:57;100381.19;;;27.73;40.65
40612;BME280;26317;44.894;20.286;2023-05-23T11:16:46;100381.19;;;27.73;41.05
40612;BME280;26317;44.894;20.286;2023-05-23T11:19:25;100384.34;;;27.85;39.83
40612;BME280;26317;44.894;20.286;2023-05-23T11:22:08;100381.63;;;27.93;38.96
40612;BME280;26317;44.894;20.286;2023-05-23T11:24:53;100373.34;;;27.96;39.33
40612;BME280;26317;44.894;20.286;2023-05-23T11:27:32;100365.50;;;28.09;39.15
40612;BME280;26317;44.894;20.286;2023-05-23T11:30:13;100366.69;;;28.18;37.42
40612;BME280;26317;44.894;20.286;2023-05-23T11:32:55;100364.75;;;28.26;37.55
40612;BME280;26317;44.894;20.286;2023-05-23T11:36:07;100359.22;;;28.33;37.25
40612;BME280;26317;44.894;20.286;2023-05-23T11:38:54;100371.03;;;28.55;39.10
40612;BME280;26317;44.894;20.286;2023-05-23T11:41:40;100369.81;;;28.56;36.83
40612;BME280;26317;44.894;20.286;2023-05-23T11:44:27;100372.59;;;28.49;37.27
40612;BME280;26317;44.894;20.286;2023-05-23T11:47:07;100367.88;;;28.42;38.39
40612;BME280;26317;44.894;20.286;2023-05-23T11:49:47;100363.16;;;28.50;37.11
40612;BME280;26317;44.894;20.286;2023-05-23T11:52:32;100358.41;;;28.68;37.15
40612;BME280;26317;44.894;20.286;2023-05-23T11:55:23;100362.34;;;28.70;36.74
40612;BME280;26317;44.894;20.286;2023-05-23T11:58:00;100363.13;;;28.78;36.13
40612;BME280;26317;44.894;20.286;2023-05-23T12:00:46;100356.75;;;28.99;36.09
40612;BME280;26317;44.894;20.286;2023-05-23T12:03:25;100354.75;;;29.13;37.02
40612;BME280;26317;44.894;20.286;2023-05-23T12:06:04;100354.69;;;29.24;35.39
40612;BME280;26317;44.894;20.286;2023-05-23T12:08:40;100346.41;;;29.35;34.31
40612;BME280;26317;44.894;20.286;2023-05-23T12:11:18;100351.47;;;29.47;34.31
40612;BME280;26317;44.894;20.286;2023-05-23T12:13:58;100350.28;;;29.41;35.52
40612;BME280;26317;44.894;20.286;2023-05-23T12:16:46;100335.25;;;29.49;34.59
40612;BME280;26317;44.894;20.286;2023-05-23T12:19:22;100314.00;;;29.32;33.71
40612;BME280;26317;44.894;20.286;2023-05-23T12:22:07;100338.28;;;29.68;34.38
40612;BME280;26317;44.894;20.286;2023-05-23T12:24:46;100326.31;;;29.89;34.40
40612;BME280;26317;44.894;20.286;2023-05-23T12:27:34;100322.63;;;30.06;35.17
40612;BME280;26317;44.894;20.286;2023-05-23T12:30:14;100323.22;;;30.28;34.53
40612;BME280;26317;44.894;20.286;2023-05-23T12:32:51;100324.88;;;30.22;32.91
40612;BME280;26317;44.894;20.286;2023-05-23T12:35:33;100317.75;;;30.21;33.26
40612;BME280;26317;44.894;20.286;2023-05-23T12:38:14;100305.91;;;30.21;33.73
40612;BME280;26317;44.894;20.286;2023-05-23T12:40:46;100313.22;;;30.45;35.03
40612;BME280;26317;44.894;20.286;2023-05-23T12:43:33;100319.31;;;30.67;34.14
40612;BME280;26317;44.894;20.286;2023-05-23T12:46:18;100313.03;;;30.63;33.77
40612;BME280;26317;44.894;20.286;2023-05-23T12:48:55;100284.78;;;30.37;31.50
40612;BME280;26317;44.894;20.286;2023-05-23T12:51:31;100318.75;;;30.45;31.61
40612;BME280;26317;44.894;20.286;2023-05-23T12:54:12;100306.84;;;30.48;32.29
40612;BME280;26317;44.894;20.286;2023-05-23T12:57:07;100304.28;;;30.68;32.11
40612;BME280;26317;44.894;20.286;2023-05-23T12:59:52;100304.25;;;30.71;32.64
40612;BME280;26317;44.894;20.286;2023-05-23T13:02:26;100295.38;;;30.83;31.53
40612;BME280;26317;44.894;20.286;2023-05-23T13:05:10;100295.63;;;30.96;32.65
40612;BME280;26317;44.894;20.286;2023-05-23T13:07:46;100286.59;;;30.92;30.38
40612;BME280;26317;44.894;20.286;2023-05-23T13:10:23;100281.94;;;30.82;32.32
40612;BME280;26317;44.894;20.286;2023-05-23T13:13:02;100278.88;;;30.76;31.54
40612;BME280;26317;44.894;20.286;2023-05-23T13:15:44;100286.19;;;30.56;31.94
40612;BME280;26317;44.894;20.286;2023-05-23T13:18:22;100293.13;;;30.75;32.08
40612;BME280;26317;44.894;20.286;2023-05-23T13:21:17;100290.88;;;30.96;31.70
40612;BME280;26317;44.894;20.286;2023-05-23T13:23:54;100280.66;;;31.24;31.26
40612;BME280;26317;44.894;20.286;2023-05-23T13:26:35;100280.16;;;31.59;30.91
40612;BME280;26317;44.894;20.286;2023-05-23T13:29:14;100278.19;;;31.83;31.15
40612;BME280;26317;44.894;20.286;2023-05-23T13:31:55;100273.34;;;32.14;30.58
40612;BME280;26317;44.894;20.286;2023-05-23T13:34:45;100277.19;;;32.43;29.58
40612;BME280;26317;44.894;20.286;2023-05-23T13:37:38;100260.31;;;32.11;29.15
40612;BME280;26317;44.894;20.286;2023-05-23T13:40:28;100275.28;;;32.17;28.91
40612;BME280;26317;44.894;20.286;2023-05-23T13:43:04;100266.81;;;32.24;28.95
40612;BME280;26317;44.894;20.286;2023-05-23T13:45:43;100262.47;;;32.23;30.17
40612;BME280;26317;44.894;20.286;2023-05-23T13:48:27;100247.00;;;31.99;30.10
40612;BME280;26317;44.894;20.286;2023-05-23T13:51:08;100272.22;;;32.08;29.37
40612;BME280;26317;44.894;20.286;2023-05-23T13:53:44;100257.03;;;32.16;29.81
40612;BME280;26317;44.894;20.286;2023-05-23T13:56:23;100254.72;;;32.34;30.27
40612;BME280;26317;44.894;20.286;2023-05-23T13:58:58;100253.13;;;32.56;29.66
40612;BME280;26317;44.894;20.286;2023-05-23T14:01:35;100259.97;;;32.71;30.09
40612;BME280;26317;44.894;20.286;2023-05-23T14:04:28;100258.66;;;32.96;29.19
40612;BME280;26317;44.894;20.286;2023-05-23T14:07:05;100257.72;;;33.22;29.41